Time;durP1;ratioP1;P1;durP2;ratioP2;P2;SDS_P1;SDS_P2;PMS_P1;PMS_P2;Temp;Humidity;BMP_temperature;BMP_pressure;BME280_temperature;BME280_humidity;BME280_pressure;Samples;Min_cycle;Max_cycle;Signal;HPM_P1;HPM_P2
2022/09/27 00:01:45;;;;;;;0.10;0.10;;;10.70;91.30;;;;;;4806435;29;20050;-77
2022/09/27 00:04:11;;;;;;;0.10;0.10;;;10.60;91.30;;;;;;4807120;29;20521;-77
2022/09/27 00:06:37;;;;;;;1.00;0.35;;;10.60;91.30;;;;;;4822012;29;20050;-78
2022/09/27 00:09:03;;;;;;;0.30;0.10;;;10.60;91.30;;;;;;4821503;29;20057;-79
2022/09/27 00:11:34;;;;;;;0.20;0.20;;;10.60;91.30;;;;;;4791771;29;20055;-79
2022/09/27 00:14:02;;;;;;;0.22;0.10;;;10.60;91.30;;;;;;4809047;29;20210;-79
2022/09/27 00:16:35;;;;;;;0.43;0.20;;;10.60;91.30;;;;;;4824734;29;20099;-79
2022/09/27 00:19:04;;;;;;;0.47;0.20;;;10.60;91.30;;;;;;4810025;29;20056;-81
2022/09/27 00:21:30;;;;;;;0.10;0.10;;;10.50;91.30;;;;;;4855515;29;20033;-80
2022/09/27 00:23:58;;;;;;;0.20;0.10;;;10.60;91.30;;;;;;4863626;29;20151;-80
2022/09/27 00:26:24;;;;;;;0.40;0.20;;;10.50;91.30;;;;;;4867664;29;20072;-78
2022/09/27 00:28:50;;;;;;;0.85;0.20;;;10.50;91.30;;;;;;4897709;29;20045;-79
2022/09/27 00:31:21;;;;;;;0.45;0.17;;;10.50;91.30;;;;;;4880774;29;20041;-78
2022/09/27 00:33:49;;;;;;;0.20;0.10;;;10.50;91.30;;;;;;4880208;29;20040;-78
2022/09/27 00:36:15;;;;;;;0.20;0.20;;;10.50;91.30;;;;;;4896956;29;20048;-78
2022/09/27 00:38:41;;;;;;;0.10;0.10;;;10.60;91.30;;;;;;4880521;29;20045;-78
2022/09/27 00:41:16;;;;;;;0.95;0.30;;;10.40;91.30;;;;;;4897389;29;20514;-78
2022/09/27 00:43:45;;;;;;;0.10;0.10;;;10.40;91.30;;;;;;4896868;29;20053;-77
2022/09/27 00:46:14;;;;;;;1.55;0.22;;;10.50;91.40;;;;;;4864789;29;20042;-79
2022/09/27 00:48:40;;;;;;;1.40;0.13;;;10.40;91.30;;;;;;4880168;29;20063;-80
2022/09/27 00:51:08;;;;;;;0.80;0.20;;;10.40;91.30;;;;;;4897423;29;20472;-80
2022/09/27 00:53:45;;;;;;;1.00;0.20;;;10.40;91.30;;;;;;4865115;29;20400;-80
2022/09/27 00:56:16;;;;;;;0.10;0.10;;;10.50;91.40;;;;;;4896661;29;20431;-78
2022/09/27 00:58:45;;;;;;;;;;;10.50;91.30;;;;;;4865716;29;20049;-80
2022/09/27 01:01:12;;;;;;;0.10;0.10;;;10.40;91.30;;;;;;4895049;29;20385;-79
2022/09/27 01:03:55;;;;;;;0.20;0.10;;;10.40;91.30;;;;;;4896632;29;20045;-79
2022/09/27 01:06:22;;;;;;;0.25;0.10;;;10.40;91.30;;;;;;4863944;29;20124;-79
2022/09/27 01:08:48;;;;;;;0.10;0.10;;;10.40;91.30;;;;;;4880055;29;20395;-79
2022/09/27 01:11:42;;;;;;;0.08;0.08;;;10.40;91.30;;;;;;4864551;29;20036;-79
2022/09/27 01:14:29;;;;;;;0.00;0.00;;;10.40;91.30;;;;;;4882592;29;21249;-79
2022/09/27 01:17:26;;;;;;;1.00;0.20;;;10.30;91.30;;;;;;4876790;29;20053;-79
2022/09/27 01:20:23;;;;;;;0.20;0.10;;;10.40;91.40;;;;;;4880101;29;20055;-79
2022/09/27 01:23:07;;;;;;;1.25;0.30;;;10.20;91.30;;;;;;4878580;29;20061;-79
2022/09/27 01:26:02;;;;;;;0.00;0.00;;;10.30;91.40;;;;;;4850431;29;20036;-79
2022/09/27 01:28:47;;;;;;;0.45;0.15;;;10.20;91.30;;;;;;4896442;29;20053;-80
2022/09/27 01:31:40;;;;;;;0.65;0.20;;;10.20;91.40;;;;;;4879744;29;20518;-79
2022/09/27 01:34:29;;;;;;;0.65;0.10;;;10.20;91.40;;;;;;4896493;29;20045;-79
2022/09/27 01:37:09;;;;;;;0.10;0.10;;;10.20;91.40;;;;;;4882194;29;20103;-79
2022/09/27 01:40:00;;;;;;;0.00;0.00;;;10.20;91.40;;;;;;4881081;29;20077;-79
2022/09/27 01:42:36;;;;;;;0.10;0.10;;;10.20;91.40;;;;;;4875835;29;20558;-79
2022/09/27 01:45:09;;;;;;;0.00;0.00;;;10.10;91.40;;;;;;4876419;29;20167;-79
2022/09/27 01:47:52;;;;;;;0.15;0.10;;;10.10;91.40;;;;;;4874835;29;20045;-79
2022/09/27 01:50:28;;;;;;;0.52;0.20;;;10.00;91.40;;;;;;4879307;29;20510;-79
2022/09/27 01:53:01;;;;;;;0.05;0.05;;;10.10;91.40;;;;;;4896039;29;20073;-79
2022/09/27 01:55:31;;;;;;;1.13;0.20;;;10.10;91.40;;;;;;4879195;29;20401;-79
2022/09/27 01:58:03;;;;;;;0.10;0.10;;;10.10;91.40;;;;;;4879490;29;20041;-79
2022/09/27 02:00:30;;;;;;;0.10;0.10;;;10.10;91.40;;;;;;4896027;29;20040;-79
2022/09/27 02:03:06;;;;;;;0.32;0.20;;;10.00;91.40;;;;;;4879813;29;20056;-79
2022/09/27 02:05:42;;;;;;;0.08;0.08;;;10.10;91.40;;;;;;4879991;29;20044;-79
2022/09/27 02:08:20;;;;;;;0.70;0.20;;;10.00;91.40;;;;;;4849307;29;20032;-79
2022/09/27 02:10:50;;;;;;;0.10;0.10;;;10.00;91.40;;;;;;4895684;29;20848;-79
2022/09/27 02:13:23;;;;;;;0.22;0.13;;;10.00;91.40;;;;;;4896185;29;20395;-79
2022/09/27 02:16:02;;;;;;;0.15;0.15;;;9.90;91.40;;;;;;4895871;29;20100;-79
2022/09/27 02:18:40;;;;;;;0.22;0.10;;;9.90;91.40;;;;;;4864376;29;20032;-79
2022/09/27 02:21:10;;;;;;;0.10;0.10;;;9.90;91.40;;;;;;4879083;29;20036;-79
2022/09/27 02:23:45;;;;;;;0.20;0.10;;;9.90;91.40;;;;;;4896143;29;20096;-79
2022/09/27 02:26:21;;;;;;;0.75;0.20;;;9.90;91.40;;;;;;4863820;29;20053;-79
2022/09/27 02:28:56;;;;;;;0.30;0.10;;;9.80;91.40;;;;;;4895413;29;20116;-80
2022/09/27 02:31:22;;;;;;;0.00;0.00;;;9.80;91.40;;;;;;4878584;29;20045;-79
2022/09/27 02:33:52;;;;;;;0.22;0.10;;;9.80;91.40;;;;;;4863324;29;20107;-79
2022/09/27 02:36:20;;;;;;;0.00;0.00;;;9.80;91.40;;;;;;4895677;29;20056;-79
2022/09/27 02:38:46;;;;;;;0.15;0.05;;;9.80;91.40;;;;;;4863559;29;20041;-79
2022/09/27 02:41:17;;;;;;;0.25;0.10;;;9.70;91.40;;;;;;4879004;29;20399;-79
2022/09/27 02:43:47;;;;;;;0.13;0.13;;;9.70;91.40;;;;;;4879007;29;20209;-79
2022/09/27 02:46:35;;;;;;;0.10;0.10;;;9.70;91.40;;;;;;4895474;29;20052;-79
2022/09/27 02:49:19;;;;;;;0.77;0.20;;;9.70;91.40;;;;;;4878854;29;20053;-79
2022/09/27 02:52:05;;;;;;;0.20;0.10;;;9.70;91.40;;;;;;4895806;29;20068;-79
2022/09/27 02:54:56;;;;;;;0.20;0.20;;;9.70;91.40;;;;;;4895583;29;20033;-79
2022/09/27 02:57:40;;;;;;;0.43;0.10;;;9.60;91.40;;;;;;4865233;29;20057;-79
2022/09/27 03:00:10;;;;;;;0.10;0.10;;;9.60;91.50;;;;;;4878568;29;20047;-79
2022/09/27 03:02:56;;;;;;;0.98;0.22;;;9.60;91.50;;;;;;4875583;29;20044;-79
2022/09/27 03:05:27;;;;;;;0.45;0.20;;;9.60;91.50;;;;;;4876010;29;20061;-79
2022/09/27 03:07:53;;;;;;;0.32;0.10;;;9.70;91.50;;;;;;4877094;29;20042;-79
2022/09/27 03:10:23;;;;;;;0.40;0.20;;;9.60;91.40;;;;;;4875160;29;20068;-80
2022/09/27 03:12:49;;;;;;;0.00;0.00;;;9.60;91.40;;;;;;4860056;29;20046;-78
2022/09/27 03:15:15;;;;;;;0.90;0.20;;;9.50;91.40;;;;;;4875451;29;20037;-79
2022/09/27 03:17:41;;;;;;;0.15;0.10;;;9.50;91.40;;;;;;4876555;29;20045;-79
2022/09/27 03:20:07;;;;;;;0.10;0.10;;;9.50;91.40;;;;;;4875596;29;20049;-79
2022/09/27 03:22:34;;;;;;;0.38;0.13;;;9.50;91.40;;;;;;4874461;29;20049;-80
2022/09/27 03:25:00;;;;;;;0.52;0.10;;;9.50;91.40;;;;;;4873750;29;20565;-79
2022/09/27 03:27:26;;;;;;;0.10;0.10;;;9.50;91.40;;;;;;4862825;29;20129;-79
2022/09/27 03:29:52;;;;;;;0.10;0.10;;;9.50;91.40;;;;;;4862838;29;20653;-79
2022/09/27 03:32:18;;;;;;;0.32;0.10;;;9.50;91.40;;;;;;4865334;29;20137;-79
2022/09/27 03:34:43;;;;;;;0.38;0.20;;;9.50;91.40;;;;;;4898458;29;20500;-79
2022/09/27 03:37:09;;;;;;;0.10;0.10;;;9.40;91.40;;;;;;4898085;29;20063;-79
2022/09/27 03:39:35;;;;;;;0.32;0.10;;;9.40;91.40;;;;;;4898005;29;20074;-79
2022/09/27 03:42:01;;;;;;;0.55;0.20;;;9.40;91.40;;;;;;4865104;29;20171;-79
2022/09/27 03:44:26;;;;;;;0.03;0.03;;;9.30;91.40;;;;;;4881416;29;20436;-79
2022/09/27 03:46:52;;;;;;;0.55;0.10;;;9.40;91.40;;;;;;4881279;29;20471;-80
2022/09/27 03:49:18;;;;;;;0.52;0.10;;;9.40;91.40;;;;;;4865895;29;20041;-79
2022/09/27 03:51:44;;;;;;;0.10;0.10;;;9.40;91.40;;;;;;4896302;29;20075;-79
2022/09/27 03:54:10;;;;;;;0.32;0.13;;;9.40;91.40;;;;;;4898448;29;20486;-79
2022/09/27 03:56:35;;;;;;;0.35;0.10;;;9.40;91.40;;;;;;4897983;29;20048;-79
2022/09/27 03:59:02;;;;;;;0.10;0.10;;;9.40;91.40;;;;;;4896532;29;20044;-79
2022/09/27 04:01:28;;;;;;;0.17;0.17;;;9.40;91.40;;;;;;4897955;29;20411;-79
2022/09/27 04:03:53;;;;;;;0.43;0.22;;;9.30;91.40;;;;;;4898078;29;20124;-79
2022/09/27 04:06:19;;;;;;;0.20;0.17;;;9.40;91.40;;;;;;4882139;29;20040;-79
2022/09/27 04:08:46;;;;;;;0.10;0.10;;;9.30;91.40;;;;;;4898196;29;20068;-79
2022/09/27 04:11:14;;;;;;;0.15;0.13;;;9.30;91.40;;;;;;4880692;29;20076;-79
2022/09/27 04:13:40;;;;;;;1.10;0.25;;;9.30;91.40;;;;;;4881486;29;20080;-79
2022/09/27 04:16:06;;;;;;;0.10;0.10;;;9.30;91.40;;;;;;4881320;29;20106;-79
2022/09/27 04:18:32;;;;;;;0.10;0.10;;;9.40;91.40;;;;;;4898363;29;20123;-78
2022/09/27 04:20:58;;;;;;;0.10;0.10;;;9.40;91.30;;;;;;4881332;29;20083;-79
2022/09/27 04:23:24;;;;;;;0.30;0.30;;;9.40;91.30;;;;;;4865039;29;20041;-79
2022/09/27 04:25:53;;;;;;;0.47;0.20;;;9.40;91.30;;;;;;4879728;29;20052;-79
2022/09/27 04:28:19;;;;;;;0.40;0.10;;;9.60;91.30;;;;;;4897824;29;20037;-79
2022/09/27 04:30:45;;;;;;;0.13;0.13;;;9.40;91.30;;;;;;4898066;29;20063;-78
2022/09/27 04:33:11;;;;;;;0.57;0.17;;;9.50;91.20;;;;;;4898322;29;20106;-79
2022/09/27 04:38:21;;;;;;;0.30;0.10;;;9.50;91.20;;;;;;4882831;29;20052;-78
2022/09/27 04:40:47;;;;;;;0.10;0.10;;;9.50;91.20;;;;;;4880989;29;20172;-79
2022/09/27 04:43:13;;;;;;;1.27;0.20;;;9.50;91.20;;;;;;4896740;29;20036;-79
2022/09/27 04:45:39;;;;;;;0.40;0.20;;;9.50;91.20;;;;;;4879767;29;20045;-79
2022/09/27 04:48:05;;;;;;;0.10;0.10;;;9.50;91.20;;;;;;4880827;29;20049;-79
2022/09/27 04:50:36;;;;;;;0.30;0.13;;;9.40;91.20;;;;;;4899004;29;20063;-88
2022/09/27 04:53:06;;;;;;;0.10;0.10;;;9.50;91.20;;;;;;4867130;29;20049;-84
2022/09/27 04:55:32;;;;;;;0.20;0.20;;;9.50;91.20;;;;;;4866530;29;21001;-84
2022/09/27 04:58:04;;;;;;;0.10;0.10;;;9.50;91.20;;;;;;4867880;29;20135;-85
2022/09/27 05:00:30;;;;;;;0.35;0.13;;;9.50;91.30;;;;;;4882784;29;20051;-83
2022/09/27 05:02:58;;;;;;;0.25;0.10;;;9.50;91.30;;;;;;4860897;29;20049;-83
2022/09/27 05:05:24;;;;;;;2.20;0.22;;;9.40;91.30;;;;;;4860967;29;20104;-84
2022/09/27 05:07:53;;;;;;;0.30;0.20;;;9.50;91.30;;;;;;4871800;29;20530;-84
2022/09/27 05:10:23;;;;;;;1.27;0.20;;;9.40;91.30;;;;;;4851199;29;20052;-85
2022/09/27 05:12:49;;;;;;;1.52;0.30;;;9.40;91.30;;;;;;4866765;29;20092;-84
2022/09/27 05:15:15;;;;;;;0.10;0.10;;;9.40;91.30;;;;;;4852674;29;20188;-85
2022/09/27 05:17:41;;;;;;;0.35;0.17;;;9.40;91.30;;;;;;4850347;29;20080;-83
2022/09/27 05:20:09;;;;;;;0.55;0.13;;;9.40;91.30;;;;;;4865436;29;20048;-82
2022/09/27 05:22:35;;;;;;;0.22;0.20;;;9.40;91.30;;;;;;4851523;29;21386;-78
2022/09/27 05:25:00;;;;;;;0.20;0.10;;;9.40;91.30;;;;;;4881234;29;20047;-81
2022/09/27 05:27:26;;;;;;;0.30;0.20;;;9.30;91.30;;;;;;4898948;29;20103;-80
2022/09/27 05:29:53;;;;;;;0.28;0.20;;;9.30;91.20;;;;;;4897009;29;20109;-81
2022/09/27 05:32:18;;;;;;;1.65;0.28;;;9.30;91.20;;;;;;4880366;29;20051;-80
2022/09/27 05:34:44;;;;;;;0.10;0.10;;;9.30;91.20;;;;;;4865211;29;20048;-81
2022/09/27 05:37:10;;;;;;;0.25;0.20;;;9.20;91.20;;;;;;4879995;29;20084;-82
2022/09/27 05:39:39;;;;;;;0.30;0.17;;;9.30;91.30;;;;;;4880101;29;20056;-82
2022/09/27 05:42:07;;;;;;;0.73;0.30;;;9.20;91.20;;;;;;4880305;29;20047;-82
2022/09/27 05:44:34;;;;;;;0.75;0.20;;;9.10;91.20;;;;;;4849856;29;20052;-81
2022/09/27 05:47:03;;;;;;;0.38;0.20;;;9.20;91.20;;;;;;4863448;29;20464;-81
2022/09/27 05:49:29;;;;;;;0.20;0.10;;;9.20;91.20;;;;;;4865589;29;20057;-81
2022/09/27 05:51:55;;;;;;;0.17;0.17;;;9.20;91.20;;;;;;4880092;29;20127;-82
2022/09/27 05:54:20;;;;;;;0.38;0.20;;;9.20;91.20;;;;;;4862584;29;20132;-82
2022/09/27 05:56:46;;;;;;;1.00;0.20;;;9.30;91.20;;;;;;4864096;29;20143;-83
2022/09/27 05:59:12;;;;;;;0.10;0.10;;;9.20;91.20;;;;;;4848653;29;20040;-82
2022/09/27 06:01:38;;;;;;;0.82;0.22;;;9.20;91.20;;;;;;4848854;29;20044;-82
2022/09/27 06:04:04;;;;;;;0.80;0.10;;;9.20;91.20;;;;;;4864188;29;20123;-81
2022/09/27 06:06:33;;;;;;;0.57;0.15;;;9.30;91.20;;;;;;4872810;29;20484;-82
2022/09/27 06:09:00;;;;;;;0.15;0.10;;;9.30;91.20;;;;;;4876219;29;20181;-82
2022/09/27 06:11:26;;;;;;;0.85;0.20;;;9.20;91.20;;;;;;4877164;29;20520;-82
2022/09/27 06:13:52;;;;;;;0.10;0.10;;;9.20;91.20;;;;;;4876829;29;20049;-81
2022/09/27 06:16:18;;;;;;;0.65;0.20;;;9.20;91.20;;;;;;4845444;29;20041;-82
2022/09/27 06:18:44;;;;;;;0.65;0.10;;;9.30;91.20;;;;;;4845094;29;20048;-83
2022/09/27 06:21:12;;;;;;;0.10;0.10;;;9.30;91.20;;;;;;4860822;29;20049;-82
2022/09/27 06:23:38;;;;;;;0.95;0.30;;;9.30;91.10;;;;;;4861956;29;20049;-82
2022/09/27 06:26:09;;;;;;;0.20;0.20;;;9.30;91.10;;;;;;4848045;29;20059;-82
2022/09/27 06:28:35;;;;;;;;;;;9.50;91.10;;;;;;4848120;29;20053;-83
2022/09/27 06:31:01;;;;;;;0.10;0.10;;;9.30;91.10;;;;;;4895179;29;19925;-82
2022/09/27 06:33:28;;;;;;;0.20;0.20;;;9.50;91.00;;;;;;4864526;29;20926;-84
2022/09/27 06:35:54;;;;;;;0.10;0.10;;;9.40;91.00;;;;;;4848091;29;20045;-79
2022/09/27 06:38:20;;;;;;;0.10;0.10;;;9.50;91.00;;;;;;4896673;29;20040;-79
2022/09/27 06:40:46;;;;;;;0.10;0.10;;;9.50;91.00;;;;;;4896346;29;20041;-79
2022/09/27 06:43:16;;;;;;;0.60;0.22;;;9.40;91.00;;;;;;4864296;29;20048;-79
2022/09/27 06:45:42;;;;;;;0.40;0.20;;;9.50;91.10;;;;;;4848456;29;20048;-79
2022/09/27 06:48:11;;;;;;;0.82;0.20;;;9.50;91.10;;;;;;4878011;29;20507;-78
2022/09/27 06:50:38;;;;;;;0.10;0.10;;;9.50;91.10;;;;;;4879413;29;20072;-78
2022/09/27 06:53:06;;;;;;;0.30;0.20;;;9.50;91.00;;;;;;4848733;29;20041;-79
2022/09/27 06:55:32;;;;;;;0.10;0.10;;;9.50;91.00;;;;;;4879788;29;20049;-78
2022/09/27 07:00:41;;;;;;;0.47;0.10;;;9.60;91.00;;;;;;4896304;29;20524;-79
2022/09/27 07:03:10;;;;;;;0.20;0.20;;;9.70;91.00;;;;;;4894508;29;20052;-79
2022/09/27 07:05:37;;;;;;;0.10;0.10;;;9.80;91.00;;;;;;4880122;29;20052;-78
2022/09/27 07:08:04;;;;;;;0.10;0.10;;;9.90;90.90;;;;;;4898921;29;20584;-78
2022/09/27 07:10:33;;;;;;;0.40;0.28;;;10.10;90.80;;;;;;4882121;29;20064;-78
2022/09/27 07:13:04;;;;;;;0.57;0.17;;;10.10;90.80;;;;;;4851600;29;20048;-78
2022/09/27 07:15:31;;;;;;;1.65;0.22;;;10.20;90.60;;;;;;4882413;29;20051;-81
2022/09/27 07:17:59;;;;;;;0.52;0.20;;;10.20;90.60;;;;;;4866003;29;20048;-82
2022/09/27 07:20:26;;;;;;;0.60;0.20;;;10.20;90.50;;;;;;4851905;29;20056;-82
2022/09/27 07:22:58;;;;;;;0.13;0.13;;;10.20;90.50;;;;;;4866177;29;20059;-83
2022/09/27 07:25:32;;;;;;;0.20;0.20;;;10.20;90.60;;;;;;4899810;29;20041;-83
2022/09/27 07:28:07;;;;;;;0.20;0.20;;;10.20;90.60;;;;;;4871517;29;20047;-85
2022/09/27 07:31:04;;;;;;;0.10;0.10;;;10.20;90.70;;;;;;4858937;29;20033;-86
2022/09/27 07:51:34;;;;;;;0.38;0.20;;;10.40;90.70;;;;;;4653724;30;21188;-85
2022/09/27 07:54:00;;;;;;;0.40;0.20;;;10.50;90.70;;;;;;4645323;30;20066;-83
2022/09/27 07:56:27;;;;;;;0.10;0.10;;;10.60;90.60;;;;;;4632831;30;20081;-85
2022/09/27 07:58:52;;;;;;;0.13;0.13;;;10.60;90.60;;;;;;4596461;31;20187;-83
2022/09/27 08:01:18;;;;;;;0.20;0.20;;;10.60;90.60;;;;;;4610253;30;20719;-82
2022/09/27 08:03:44;;;;;;;0.55;0.20;;;10.60;90.60;;;;;;4674318;30;20048;-83
2022/09/27 08:06:11;;;;;;;1.10;0.10;;;10.60;90.60;;;;;;4707255;30;20128;-84
2022/09/27 08:08:40;;;;;;;0.10;0.10;;;10.80;90.70;;;;;;4686455;30;20044;-85
2022/09/27 08:11:31;;;;;;;0.13;0.13;;;10.80;90.70;;;;;;4680332;30;20083;-83
2022/09/27 08:24:12;;;;;;;0.77;0.20;;;10.70;90.60;;;;;;4638434;30;20565;-85
2022/09/27 08:26:38;;;;;;;;;;;10.80;90.60;;;;;;4643672;30;20086;-82
2022/09/27 08:29:04;;;;;;;0.20;0.20;;;10.80;90.60;;;;;;4688329;30;20006;-86
2022/09/27 08:31:30;;;;;;;0.43;0.10;;;10.80;90.60;;;;;;4669415;30;20053;-84
2022/09/27 08:33:56;;;;;;;0.52;0.20;;;10.80;90.60;;;;;;4669134;30;20463;-84
2022/09/27 08:36:23;;;;;;;0.10;0.10;;;10.80;90.60;;;;;;4683538;30;20050;-86
2022/09/27 08:38:49;;;;;;;0.75;0.28;;;10.80;90.60;;;;;;4684638;30;20178;-83
2022/09/27 08:41:34;;;;;;;0.20;0.20;;;10.80;90.70;;;;;;4703061;30;20052;-86
2022/09/27 08:44:30;;;;;;;1.45;0.35;;;10.80;90.70;;;;;;4732680;29;20039;-85
2022/09/27 08:47:13;;;;;;;0.40;0.20;;;10.80;90.80;;;;;;4793561;29;20106;-85
2022/09/27 08:49:50;;;;;;;0.30;0.30;;;10.80;90.80;;;;;;4778630;29;20134;-84
2022/09/27 08:52:26;;;;;;;0.25;0.25;;;10.80;90.80;;;;;;4777283;29;20042;-84
2022/09/27 08:54:54;;;;;;;0.35;0.30;;;10.80;90.80;;;;;;4777736;29;20050;-82
2022/09/27 08:57:23;;;;;;;0.30;0.30;;;10.90;90.80;;;;;;4791336;29;20150;-82
2022/09/27 09:00:05;;;;;;;0.55;0.30;;;10.90;90.80;;;;;;4797028;29;20043;-83
2022/09/27 09:02:31;;;;;;;0.65;0.52;;;11.00;90.80;;;;;;4862066;29;20029;-83
2022/09/27 09:05:05;;;;;;;0.40;0.40;;;11.00;90.80;;;;;;4850290;29;20036;-82
2022/09/27 09:07:48;;;;;;;0.73;0.43;;;11.10;90.70;;;;;;4864733;29;20041;-82
2022/09/27 09:13:51;;;;;;;0.32;0.32;;;11.10;90.70;;;;;;4880918;29;20049;-84
2022/09/27 09:16:38;;;;;;;0.90;0.30;;;11.20;90.70;;;;;;4866030;29;20136;-84
2022/09/27 09:19:42;;;;;;;0.88;0.40;;;11.10;90.60;;;;;;4864466;29;20582;-85
2022/09/27 09:22:39;;;;;;;0.30;0.30;;;11.00;90.60;;;;;;4877004;29;20049;-84
2022/09/27 09:25:30;;;;;;;0.25;0.25;;;11.10;90.70;;;;;;4868372;29;20638;-82
2022/09/27 09:28:33;;;;;;;0.30;0.30;;;11.00;90.70;;;;;;4846569;29;20029;-82
2022/09/27 09:31:27;;;;;;;0.28;0.28;;;11.00;90.70;;;;;;4896653;29;20166;-83
2022/09/27 09:34:03;;;;;;;0.75;0.30;;;11.00;90.80;;;;;;4866432;29;20492;-83
2022/09/27 09:36:51;;;;;;;0.30;0.30;;;11.10;90.80;;;;;;4841684;29;20041;-83
2022/09/27 09:39:27;;;;;;;0.57;0.40;;;11.10;90.80;;;;;;4837560;29;20057;-84
2022/09/27 09:42:13;;;;;;;0.20;0.20;;;11.20;90.80;;;;;;4840806;29;20057;-83
2022/09/27 09:44:54;;;;;;;0.40;0.40;;;11.20;90.70;;;;;;4841187;29;20044;-81
2022/09/27 09:47:30;;;;;;;0.35;0.35;;;11.20;90.70;;;;;;4841611;29;20102;-79
2022/09/27 09:50:13;;;;;;;0.30;0.30;;;11.20;90.60;;;;;;4841024;29;20065;-83
2022/09/27 09:52:44;;;;;;;0.45;0.43;;;11.20;90.70;;;;;;4842277;29;20053;-82
2022/09/27 09:55:21;;;;;;;1.27;0.30;;;11.30;90.70;;;;;;4840570;29;20110;-83
2022/09/27 09:58:06;;;;;;;1.25;0.35;;;11.00;90.70;;;;;;4838900;29;20569;-81
2022/09/27 10:00:32;;;;;;;0.30;0.28;;;11.10;90.80;;;;;;4841526;29;20079;-82
2022/09/27 10:02:59;;;;;;;0.43;0.30;;;11.10;90.80;;;;;;4839469;29;20196;-84
2022/09/27 10:05:27;;;;;;;0.28;0.20;;;11.10;90.80;;;;;;4841166;29;20041;-81
2022/09/27 10:07:58;;;;;;;1.65;0.25;;;11.20;90.90;;;;;;4841188;29;20041;-83
2022/09/27 10:10:23;;;;;;;0.08;0.08;;;11.30;90.90;;;;;;4841762;29;20501;-83
2022/09/27 10:12:50;;;;;;;0.55;0.20;;;11.20;90.80;;;;;;4812059;29;20125;-83
2022/09/27 10:15:19;;;;;;;0.32;0.20;;;11.30;90.80;;;;;;4863270;29;20065;-83
2022/09/27 10:17:49;;;;;;;0.10;0.10;;;11.30;90.80;;;;;;4853654;29;20084;-82
2022/09/27 10:20:37;;;;;;;0.85;0.20;;;11.30;90.70;;;;;;4880865;29;20043;-82
2022/09/27 10:23:14;;;;;;;0.20;0.20;;;11.30;90.60;;;;;;4896367;29;20515;-83
2022/09/27 10:25:56;;;;;;;0.20;0.20;;;11.20;90.70;;;;;;4896301;29;20447;-81
2022/09/27 10:28:47;;;;;;;0.15;0.10;;;11.20;90.80;;;;;;4865245;29;20029;-81
2022/09/27 10:31:17;;;;;;;0.35;0.13;;;11.20;90.80;;;;;;4874306;29;20033;-84
2022/09/27 10:34:04;;;;;;;0.17;0.10;;;11.10;90.80;;;;;;4882593;29;20049;-83
2022/09/27 10:36:33;;;;;;;0.20;0.20;;;11.20;90.90;;;;;;4877926;29;20297;-83
2022/09/27 10:39:03;;;;;;;0.10;0.10;;;11.30;90.90;;;;;;4860734;29;20400;-83
2022/09/27 10:41:35;;;;;;;0.10;0.10;;;11.20;90.80;;;;;;4861903;29;20117;-83
2022/09/27 10:44:31;;;;;;;0.30;0.20;;;11.30;90.80;;;;;;4879508;29;20033;-84
2022/09/27 10:47:06;;;;;;;0.20;0.10;;;11.20;90.70;;;;;;4879166;29;20532;-83
2022/09/27 10:49:36;;;;;;;0.45;0.10;;;11.20;90.70;;;;;;4879984;29;20045;-82
2022/09/27 10:52:18;;;;;;;0.10;0.10;;;11.20;90.70;;;;;;4879250;29;20059;-84
2022/09/27 10:54:57;;;;;;;0.15;0.15;;;11.20;90.70;;;;;;4866344;29;20113;-83
2022/09/27 10:57:27;;;;;;;0.10;0.10;;;11.20;90.70;;;;;;4897397;29;20040;-82
2022/09/27 11:00:15;;;;;;;0.75;0.10;;;11.30;90.70;;;;;;4881923;29;20029;-82
2022/09/27 11:02:41;;;;;;;0.10;0.10;;;11.20;90.60;;;;;;4898938;29;20047;-82
2022/09/27 11:05:28;;;;;;;0.28;0.20;;;11.30;90.60;;;;;;4866856;29;20396;-82
2022/09/27 11:07:58;;;;;;;0.28;0.17;;;11.20;90.60;;;;;;4850148;29;20048;-83
2022/09/27 11:10:30;;;;;;;0.00;0.00;;;11.30;90.60;;;;;;4865388;29;20526;-82
2022/09/27 11:13:16;;;;;;;0.50;0.20;;;11.40;90.60;;;;;;4866766;29;20041;-83
2022/09/27 11:16:15;;;;;;;1.38;0.20;;;11.40;90.50;;;;;;4851545;29;20143;-83
2022/09/27 11:19:15;;;;;;;0.65;0.20;;;11.40;90.50;;;;;;4884894;29;20037;-83
2022/09/27 11:21:56;;;;;;;0.00;0.00;;;11.50;90.50;;;;;;4870479;29;20029;-83
2022/09/27 11:24:43;;;;;;;0.80;0.20;;;11.50;90.40;;;;;;4851994;29;20041;-85
2022/09/27 11:27:36;;;;;;;0.68;0.20;;;11.60;90.30;;;;;;4865299;29;20128;-83
2022/09/27 11:30:12;;;;;;;0.38;0.20;;;11.60;90.30;;;;;;4854288;29;20959;-84
2022/09/27 11:33:18;;;;;;;0.43;0.30;;;11.60;90.20;;;;;;4851003;29;20045;-83
2022/09/27 11:36:12;;;;;;;0.13;0.13;;;11.70;90.20;;;;;;4856595;29;20040;-84
2022/09/27 11:39:06;;;;;;;0.28;0.20;;;11.90;90.10;;;;;;4864369;29;20128;-84
2022/09/27 11:41:57;;;;;;;0.15;0.15;;;11.90;90.10;;;;;;4867474;29;20040;-84
2022/09/27 11:44:58;;;;;;;0.10;0.00;;;11.90;90.00;;;;;;4868042;29;20152;-84
2022/09/27 12:38:04;;;;;;;0.43;0.20;;;11.90;89.30;;;;;;4729287;30;20140;-78
2022/09/27 12:40:40;;;;;;;0.15;0.10;;;11.80;89.60;;;;;;4731498;30;20075;-78
2022/09/27 12:43:12;;;;;;;0.10;0.10;;;11.70;89.70;;;;;;4722123;30;20124;-78
2022/09/27 12:46:03;;;;;;;1.55;0.20;;;11.60;90.00;;;;;;4700090;30;20041;-80
2022/09/27 12:48:50;;;;;;;0.10;0.10;;;11.50;90.10;;;;;;4714944;30;20052;-80
2022/09/27 12:51:21;;;;;;;0.10;0.10;;;11.50;90.20;;;;;;4713911;30;20132;-80
2022/09/27 12:54:21;;;;;;;0.80;0.20;;;11.50;90.20;;;;;;4700597;30;20049;-79
2022/09/27 12:57:03;;;;;;;0.90;0.20;;;11.50;90.10;;;;;;4702237;30;20512;-80
2022/09/27 12:59:52;;;;;;;0.10;0.10;;;11.50;90.20;;;;;;4714814;30;20053;-80
2022/09/27 13:02:57;;;;;;;0.17;0.17;;;11.50;90.10;;;;;;4714750;30;20037;-80
2022/09/27 13:05:41;;;;;;;0.10;0.10;;;11.50;90.10;;;;;;4713429;30;20192;-81
2022/09/27 13:08:42;;;;;;;0.10;0.10;;;11.50;90.10;;;;;;4776373;30;20047;-80
2022/09/27 13:11:25;;;;;;;0.20;0.10;;;11.40;90.10;;;;;;4800495;29;20045;-81
2022/09/27 13:13:56;;;;;;;0.10;0.10;;;11.50;90.20;;;;;;4858011;29;20393;-80
2022/09/27 13:16:24;;;;;;;;;;;11.50;90.20;;;;;;4863371;29;20064;-81
2022/09/27 13:18:55;;;;;;;0.25;0.10;;;11.40;90.10;;;;;;4895276;29;19915;-81
2022/09/27 13:21:52;;;;;;;0.00;0.00;;;11.50;90.20;;;;;;4897025;29;20037;-81
2022/09/27 13:24:40;;;;;;;0.35;0.10;;;11.50;90.20;;;;;;4896598;29;20077;-81
2022/09/27 13:27:40;;;;;;;0.10;0.10;;;11.40;90.10;;;;;;4880189;29;20124;-82
2022/09/27 13:30:46;;;;;;;0.20;0.13;;;11.50;90.10;;;;;;4869212;29;20214;-81
2022/09/27 13:33:52;;;;;;;0.10;0.10;;;11.40;90.10;;;;;;4857245;29;20037;-82
2022/09/27 13:36:28;;;;;;;0.10;0.10;;;11.40;90.10;;;;;;4872418;29;20076;-82
2022/09/27 13:39:13;;;;;;;0.10;0.10;;;11.30;90.10;;;;;;4880250;29;20048;-82
2022/09/27 13:42:07;;;;;;;0.30;0.20;;;11.30;90.20;;;;;;4850540;29;20483;-82
2022/09/27 13:44:51;;;;;;;0.10;0.10;;;11.30;90.20;;;;;;4868479;29;20154;-81
2022/09/27 13:47:32;;;;;;;0.65;0.10;;;11.30;90.20;;;;;;4863218;29;20041;-81
2022/09/27 13:50:15;;;;;;;0.47;0.17;;;11.30;90.20;;;;;;4896436;29;20041;-82
2022/09/27 13:52:45;;;;;;;0.05;0.05;;;11.40;90.20;;;;;;4879883;29;20131;-82
2022/09/27 13:55:45;;;;;;;0.20;0.10;;;11.40;90.20;;;;;;4876933;29;20053;-81
2022/09/27 13:58:32;;;;;;;0.15;0.10;;;11.50;90.10;;;;;;4876506;29;20053;-82
2022/09/27 14:01:01;;;;;;;0.10;0.10;;;11.50;90.10;;;;;;4877582;29;20029;-82
2022/09/27 14:03:34;;;;;;;0.10;0.10;;;11.40;90.10;;;;;;4877050;29;20041;-81
2022/09/27 14:06:04;;;;;;;0.10;0.10;;;11.50;90.10;;;;;;4877981;29;20499;-82
2022/09/27 14:08:37;;;;;;;0.10;0.10;;;11.50;90.10;;;;;;4860798;29;20054;-82
2022/09/27 14:11:11;;;;;;;0.35;0.10;;;11.50;90.10;;;;;;4879114;29;20041;-82
2022/09/27 14:13:38;;;;;;;0.10;0.10;;;11.50;90.10;;;;;;4860804;29;20388;-82
2022/09/27 14:16:05;;;;;;;0.10;0.10;;;11.50;90.00;;;;;;4877538;29;20048;-82
2022/09/27 14:18:35;;;;;;;0.00;0.00;;;11.60;90.00;;;;;;4876122;29;20048;-82
2022/09/27 14:21:19;;;;;;;0.20;0.20;;;11.60;89.90;;;;;;4875975;29;20041;-81
2022/09/27 14:23:44;;;;;;;0.05;0.05;;;11.70;89.90;;;;;;4877785;29;20093;-81
2022/09/27 14:26:23;;;;;;;0.10;0.10;;;11.70;89.90;;;;;;4879344;29;20040;-80
2022/09/27 14:28:48;;;;;;;0.20;0.10;;;11.70;89.80;;;;;;4896263;29;20048;-80
2022/09/27 14:31:21;;;;;;;0.00;0.00;;;11.80;89.70;;;;;;4863664;29;20495;-80
2022/09/27 14:33:46;;;;;;;0.10;0.10;;;11.70;89.60;;;;;;4896298;29;20432;-80
2022/09/27 14:39:21;;;;;;;0.82;0.20;;;11.80;89.60;;;;;;4896043;29;20059;-80
2022/09/27 14:41:47;;;;;;;0.10;0.10;;;11.80;89.50;;;;;;4879799;29;20033;-80
2022/09/27 14:44:17;;;;;;;0.15;0.10;;;11.80;89.50;;;;;;4879108;29;20040;-80
2022/09/27 14:46:45;;;;;;;0.10;0.10;;;11.70;89.40;;;;;;4863786;29;20041;-79
2022/09/27 14:49:22;;;;;;;0.10;0.10;;;11.90;89.50;;;;;;4895424;29;20148;-80
2022/09/27 14:51:53;;;;;;;0.28;0.10;;;11.80;89.30;;;;;;4895443;29;20087;-80
2022/09/27 14:54:25;;;;;;;0.10;0.10;;;11.80;89.20;;;;;;4878654;29;20047;-79
2022/09/27 14:56:53;;;;;;;0.10;0.10;;;11.80;89.10;;;;;;4878781;29;20040;-79